createdAt,value
2019-06-25T00:00:58.033Z,994.57
2019-06-25T00:01:58.154Z,994.58
2019-06-25T00:02:58.291Z,994.52
2019-06-25T00:03:58.456Z,994.55
2019-06-25T00:04:58.573Z,994.51
2019-06-25T00:05:58.705Z,994.50
2019-06-25T00:06:58.846Z,994.51
2019-06-25T00:07:59.060Z,994.50
2019-06-25T00:08:59.158Z,994.50
2019-06-25T00:09:59.295Z,994.49
2019-06-25T00:10:59.434Z,994.50
2019-06-25T00:11:59.573Z,994.49
2019-06-25T00:12:59.734Z,994.45
2019-06-25T00:13:59.859Z,994.45
2019-06-25T00:14:59.989Z,994.44
2019-06-25T00:16:00.142Z,994.44
2019-06-25T00:17:00.268Z,994.44
2019-06-25T00:18:00.426Z,994.43
2019-06-25T00:19:00.566Z,994.38
2019-06-25T00:20:00.695Z,994.44
2019-06-25T00:21:00.834Z,994.46
2019-06-25T00:22:00.996Z,994.45
2019-06-25T00:23:01.116Z,994.44
2019-06-25T00:24:01.264Z,994.48
2019-06-25T00:25:01.407Z,994.46
2019-06-25T00:26:01.543Z,994.47
2019-06-25T00:27:01.679Z,994.47
2019-06-25T00:28:01.806Z,994.49
2019-06-25T00:29:01.947Z,994.45
2019-06-25T00:30:02.156Z,994.46
2019-06-25T00:31:02.216Z,994.43
2019-06-25T00:32:02.354Z,994.43
2019-06-25T00:33:02.489Z,994.44
2019-06-25T00:34:02.620Z,994.46
2019-06-25T00:35:02.778Z,994.51
2019-06-25T00:36:02.926Z,994.48
2019-06-25T00:37:03.050Z,994.51
2019-06-25T00:38:03.189Z,994.52
2019-06-25T00:39:03.320Z,994.48
2019-06-25T00:40:03.469Z,994.52
2019-06-25T00:41:03.608Z,994.49
2019-06-25T00:42:03.736Z,994.50
2019-06-25T00:43:03.876Z,994.46
2019-06-25T00:44:04.006Z,994.47
2019-06-25T00:45:04.140Z,994.47
2019-06-25T00:46:04.279Z,994.48
2019-06-25T00:47:04.433Z,994.47
2019-06-25T00:48:04.574Z,994.42
2019-06-25T00:49:04.695Z,994.44
2019-06-25T00:50:04.836Z,994.42
2019-06-25T00:51:04.985Z,994.43
2019-06-25T00:52:05.105Z,994.43
2019-06-25T00:53:05.243Z,994.48
2019-06-25T00:54:05.378Z,994.46
2019-06-25T00:55:05.513Z,994.44
2019-06-25T00:56:05.696Z,994.43
2019-06-25T00:57:05.787Z,994.45
2019-06-25T00:58:05.922Z,994.41
2019-06-25T00:59:06.057Z,994.42
2019-06-25T01:00:12.867Z,994.40
2019-06-25T01:01:06.334Z,994.39
2019-06-25T01:02:06.467Z,994.39
2019-06-25T01:03:06.591Z,994.38
2019-06-25T01:04:06.726Z,994.37
2019-06-25T01:05:06.864Z,994.34
2019-06-25T01:06:06.995Z,994.36
2019-06-25T01:07:07.127Z,994.35
2019-06-25T01:08:07.285Z,994.36
2019-06-25T01:09:07.418Z,994.41
2019-06-25T01:10:07.550Z,994.35
2019-06-25T01:11:07.705Z,994.34
2019-06-25T01:12:07.827Z,994.34
2019-06-25T01:13:07.956Z,994.31
2019-06-25T01:14:08.090Z,994.31
2019-06-25T01:15:08.228Z,994.28
2019-06-25T01:16:08.359Z,994.29
2019-06-25T01:17:08.494Z,994.25
2019-06-25T01:18:08.627Z,994.24
2019-06-25T01:19:08.766Z,994.28
2019-06-25T01:20:08.903Z,994.27
2019-06-25T01:21:09.041Z,994.29
2019-06-25T01:22:09.177Z,994.27
2019-06-25T01:23:09.313Z,994.32
2019-06-25T01:24:09.450Z,994.28
2019-06-25T01:25:09.590Z,994.30
2019-06-25T01:26:09.722Z,994.31
2019-06-25T01:27:09.858Z,994.29
2019-06-25T01:28:10.000Z,994.24
2019-06-25T01:29:10.140Z,994.28
2019-06-25T01:30:10.258Z,994.23
2019-06-25T01:31:10.392Z,994.27
2019-06-25T01:32:10.527Z,994.25
2019-06-25T01:33:10.658Z,994.21
2019-06-25T01:34:10.796Z,994.24
2019-06-25T01:35:10.928Z,994.24
2019-06-25T01:36:11.067Z,994.22
2019-06-25T01:37:11.200Z,994.24
2019-06-25T01:38:11.335Z,994.26
2019-06-25T01:39:11.474Z,994.21
2019-06-25T01:40:11.602Z,994.21
2019-06-25T01:41:11.739Z,994.20
2019-06-25T01:42:11.886Z,994.21
2019-06-25T01:43:12.028Z,994.15
2019-06-25T01:44:12.168Z,994.21
2019-06-25T01:45:12.324Z,994.23
2019-06-25T01:46:12.435Z,994.22
2019-06-25T01:47:12.567Z,994.21
2019-06-25T01:48:12.711Z,994.15
2019-06-25T01:49:12.850Z,994.19
2019-06-25T01:50:12.987Z,994.18
2019-06-25T01:51:13.118Z,994.18
2019-06-25T01:52:13.255Z,994.22
2019-06-25T01:53:13.395Z,994.18
2019-06-25T01:54:13.526Z,994.21
2019-06-25T01:55:13.731Z,994.20
2019-06-25T01:56:13.745Z,994.22
2019-06-25T01:57:13.873Z,994.23
2019-06-25T01:58:14.003Z,994.24
2019-06-25T01:59:14.179Z,994.25
2019-06-25T02:00:14.272Z,994.24
2019-06-25T02:01:14.433Z,994.21
2019-06-25T02:02:14.563Z,994.20
2019-06-25T02:03:14.710Z,994.19
2019-06-25T02:04:14.843Z,994.22
2019-06-25T02:05:14.989Z,994.21
2019-06-25T02:06:15.136Z,994.18
2019-06-25T02:07:15.252Z,994.18
2019-06-25T02:08:15.387Z,994.17
2019-06-25T02:09:15.540Z,994.19
2019-06-25T02:10:15.675Z,994.18
2019-06-25T02:11:15.818Z,994.16
2019-06-25T02:12:15.965Z,994.14
2019-06-25T02:13:16.092Z,994.13
2019-06-25T02:14:16.239Z,994.11
2019-06-25T02:15:16.369Z,994.12
2019-06-25T02:16:16.532Z,994.08
2019-06-25T02:17:16.694Z,994.11
2019-06-25T02:18:16.787Z,994.08
2019-06-25T02:19:16.926Z,994.06
2019-06-25T02:20:17.063Z,994.04
2019-06-25T02:21:17.193Z,994.00
2019-06-25T02:22:17.326Z,994.06
2019-06-25T02:23:17.463Z,994.03
2019-06-25T02:24:17.603Z,994.06
2019-06-25T02:25:17.735Z,994.04
2019-06-25T02:26:17.875Z,994.05
2019-06-25T02:27:18.012Z,994.06
2019-06-25T02:28:18.155Z,994.08
2019-06-25T02:29:18.284Z,994.06
2019-06-25T02:30:18.422Z,994.06
2019-06-25T02:31:18.556Z,994.04
2019-06-25T02:32:18.723Z,994.03
2019-06-25T02:33:18.854Z,994.04
2019-06-25T02:34:18.994Z,993.98
2019-06-25T02:35:19.146Z,994.01
2019-06-25T02:36:19.277Z,994.01
2019-06-25T02:37:19.409Z,994.05
2019-06-25T02:38:19.542Z,994.06
2019-06-25T02:39:19.684Z,994.01
2019-06-25T02:40:19.831Z,994.01
2019-06-25T02:41:19.952Z,994.05
2019-06-25T02:42:20.087Z,993.97
2019-06-25T02:43:20.233Z,994.00
2019-06-25T02:44:20.392Z,993.99
2019-06-25T02:45:20.537Z,994.00
2019-06-25T02:46:20.664Z,993.98
2019-06-25T02:47:20.796Z,994.09
2019-06-25T02:48:20.975Z,994.06
2019-06-25T02:49:21.095Z,994.09
2019-06-25T02:50:21.231Z,994.14
2019-06-25T02:51:21.365Z,994.11
2019-06-25T02:52:21.499Z,994.11
2019-06-25T02:53:21.644Z,994.12
2019-06-25T02:54:21.808Z,994.09
2019-06-25T02:55:21.927Z,994.10
2019-06-25T02:56:22.067Z,994.09
2019-06-25T02:57:22.228Z,994.08
2019-06-25T02:58:22.356Z,994.10
2019-06-25T02:59:22.473Z,994.11
2019-06-25T03:00:22.639Z,994.07
2019-06-25T03:01:29.255Z,994.08
2019-06-25T03:02:22.901Z,994.11
2019-06-25T03:03:23.043Z,994.14
2019-06-25T03:04:23.180Z,994.11
2019-06-25T03:05:23.332Z,994.15
2019-06-25T03:06:23.462Z,994.15
2019-06-25T03:07:23.591Z,994.15
2019-06-25T03:08:23.725Z,994.13
2019-06-25T03:09:23.865Z,994.16
2019-06-25T03:10:23.999Z,994.15
2019-06-25T03:11:24.126Z,994.13
2019-06-25T03:12:24.268Z,994.16
2019-06-25T03:13:24.433Z,994.14
2019-06-25T03:14:24.562Z,994.13
2019-06-25T03:15:24.690Z,994.18
2019-06-25T03:16:24.837Z,994.13
2019-06-25T03:17:24.979Z,994.15
2019-06-25T03:18:25.097Z,994.15
2019-06-25T03:19:25.251Z,994.13
2019-06-25T03:20:25.399Z,994.11
2019-06-25T03:21:25.591Z,994.10
2019-06-25T03:22:25.721Z,994.13
2019-06-25T03:23:25.857Z,994.10
2019-06-25T03:24:26.012Z,994.10
2019-06-25T03:25:26.145Z,994.11
2019-06-25T03:26:26.292Z,994.09
2019-06-25T03:27:26.418Z,994.08
2019-06-25T03:28:26.569Z,994.13
2019-06-25T03:29:26.707Z,994.10
2019-06-25T03:30:26.840Z,994.15
2019-06-25T03:32:00.194Z,994.18
2019-06-25T03:32:27.104Z,994.21
2019-06-25T03:33:27.245Z,994.16
2019-06-25T03:34:27.368Z,994.13
2019-06-25T03:35:27.525Z,994.17
2019-06-25T03:36:27.655Z,994.14
2019-06-25T03:37:27.830Z,994.12
2019-06-25T03:38:27.932Z,994.12
2019-06-25T03:39:28.076Z,994.12
2019-06-25T03:40:28.204Z,994.09
2019-06-25T03:41:28.344Z,994.14
2019-06-25T03:42:28.476Z,994.15
2019-06-25T03:43:28.608Z,994.19
2019-06-25T03:44:28.754Z,994.15
2019-06-25T03:45:28.897Z,994.17
2019-06-25T03:46:29.030Z,994.18
2019-06-25T03:47:29.177Z,994.14
2019-06-25T03:48:29.318Z,994.15
2019-06-25T03:49:29.455Z,994.16
2019-06-25T03:50:29.590Z,994.15
2019-06-25T03:51:31.652Z,994.18
2019-06-25T03:52:29.855Z,994.16
2019-06-25T03:53:29.983Z,994.20
2019-06-25T03:54:30.118Z,994.18
2019-06-25T03:55:30.276Z,994.17
2019-06-25T03:56:30.414Z,994.15
2019-06-25T03:57:30.541Z,994.18
2019-06-25T03:58:30.689Z,994.17
2019-06-25T03:59:31.323Z,994.16
2019-06-25T04:00:30.971Z,994.18
2019-06-25T04:01:31.138Z,994.22
2019-06-25T04:02:31.264Z,994.20
2019-06-25T04:03:31.399Z,994.22
2019-06-25T04:04:31.540Z,994.20
2019-06-25T04:05:31.674Z,994.23
2019-06-25T04:06:31.878Z,994.21
2019-06-25T04:07:31.969Z,994.22
2019-06-25T04:08:32.115Z,994.16
2019-06-25T04:09:32.233Z,994.21
2019-06-25T04:10:32.369Z,994.16
2019-06-25T04:11:32.504Z,994.19
2019-06-25T04:12:32.647Z,994.18
2019-06-25T04:13:32.778Z,994.18
2019-06-25T04:14:32.925Z,994.12
2019-06-25T04:15:33.055Z,994.14
2019-06-25T04:16:33.189Z,994.13
2019-06-25T04:17:33.319Z,994.11
2019-06-25T04:18:33.475Z,994.16
2019-06-25T04:19:33.594Z,994.15
2019-06-25T04:20:33.734Z,994.11
2019-06-25T04:21:33.863Z,994.15
2019-06-25T04:22:33.995Z,994.12
2019-06-25T04:23:34.127Z,994.12
2019-06-25T04:24:34.262Z,994.12
2019-06-25T04:25:34.410Z,994.08
2019-06-25T04:26:34.537Z,994.03
2019-06-25T04:27:34.674Z,994.03
2019-06-25T04:28:34.806Z,994.00
2019-06-25T04:29:34.933Z,994.00
2019-06-25T04:30:35.076Z,993.97
2019-06-25T04:31:35.213Z,993.99
2019-06-25T04:32:35.366Z,994.00
2019-06-25T04:33:35.521Z,994.01
2019-06-25T04:34:35.630Z,994.05
2019-06-25T04:35:35.774Z,994.08
2019-06-25T04:36:35.905Z,994.03
2019-06-25T04:37:36.038Z,994.06
2019-06-25T04:38:36.174Z,994.07
2019-06-25T04:39:36.386Z,994.08
2019-06-25T04:40:36.453Z,994.03
2019-06-25T04:41:36.591Z,994.06
2019-06-25T04:42:36.723Z,994.11
2019-06-25T04:43:36.887Z,994.08
2019-06-25T04:44:37.014Z,994.07
2019-06-25T04:45:37.144Z,994.11
2019-06-25T04:46:37.281Z,994.12
2019-06-25T04:47:37.438Z,994.06
2019-06-25T04:48:37.572Z,994.08
2019-06-25T04:49:37.721Z,994.08
2019-06-25T04:50:37.841Z,994.10
2019-06-25T04:51:38.015Z,994.07
2019-06-25T04:52:38.128Z,994.14
2019-06-25T04:53:38.259Z,994.14
2019-06-25T04:54:38.398Z,994.11
2019-06-25T04:55:38.542Z,994.13
2019-06-25T04:56:38.746Z,994.14
2019-06-25T04:57:38.793Z,994.12
2019-06-25T04:58:38.932Z,994.11
2019-06-25T04:59:39.125Z,994.16
2019-06-25T05:00:39.206Z,994.17
2019-06-25T05:01:39.341Z,994.17
2019-06-25T05:02:49.244Z,994.21
2019-06-25T05:03:39.639Z,994.19
2019-06-25T05:04:39.792Z,994.23
2019-06-25T05:05:39.904Z,994.24
2019-06-25T05:06:40.041Z,994.27
2019-06-25T05:07:40.196Z,994.28
2019-06-25T05:08:40.316Z,994.31
2019-06-25T05:09:40.450Z,994.24
2019-06-25T05:10:40.604Z,994.27
2019-06-25T05:11:40.744Z,994.27
2019-06-25T05:12:40.862Z,994.30
2019-06-25T05:13:40.998Z,994.27
2019-06-25T05:14:41.135Z,994.30
2019-06-25T05:15:41.269Z,994.32
2019-06-25T05:16:41.400Z,994.28
2019-06-25T05:17:41.537Z,994.31
2019-06-25T05:18:41.685Z,994.31
2019-06-25T05:19:41.814Z,994.31
2019-06-25T05:20:41.950Z,994.31
2019-06-25T05:21:42.091Z,994.32
2019-06-25T05:22:42.241Z,994.37
2019-06-25T05:23:42.376Z,994.38
2019-06-25T05:24:42.514Z,994.44
2019-06-25T05:25:42.648Z,994.44
2019-06-25T05:26:42.785Z,994.42
2019-06-25T05:27:42.915Z,994.42
2019-06-25T05:28:43.060Z,994.37
2019-06-25T05:29:43.184Z,994.37
2019-06-25T05:30:43.326Z,994.37
2019-06-25T05:31:43.463Z,994.40
2019-06-25T05:32:43.598Z,994.38
2019-06-25T05:33:43.738Z,994.40
2019-06-25T05:34:43.880Z,994.43
2019-06-25T05:35:44.008Z,994.45
2019-06-25T05:36:44.144Z,994.42
2019-06-25T05:37:44.287Z,994.43
2019-06-25T05:38:44.423Z,994.42
2019-06-25T05:39:44.560Z,994.40
2019-06-25T05:40:44.699Z,994.37
2019-06-25T05:41:44.843Z,994.31
2019-06-25T05:42:44.973Z,994.33
2019-06-25T05:43:45.101Z,994.33
2019-06-25T05:44:45.258Z,994.36
2019-06-25T05:45:45.375Z,994.35
2019-06-25T05:46:45.500Z,994.37
2019-06-25T05:47:45.635Z,994.42
2019-06-25T05:48:45.774Z,994.42
2019-06-25T05:49:45.912Z,994.42
2019-06-25T05:50:46.045Z,994.39
2019-06-25T05:51:46.189Z,994.44
2019-06-25T05:52:46.316Z,994.43
2019-06-25T05:53:46.466Z,994.47
2019-06-25T05:54:46.595Z,994.48
2019-06-25T05:55:46.730Z,994.43
2019-06-25T05:56:46.862Z,994.45
2019-06-25T05:57:46.997Z,994.46
2019-06-25T05:58:47.135Z,994.43
2019-06-25T05:59:47.267Z,994.50
2019-06-25T06:00:47.403Z,994.53
2019-06-25T06:01:47.541Z,994.50
2019-06-25T06:02:47.674Z,994.52
2019-06-25T06:03:47.813Z,994.51
2019-06-25T06:04:47.952Z,994.51
2019-06-25T06:05:48.091Z,994.55
2019-06-25T06:06:48.228Z,994.50
2019-06-25T06:07:48.362Z,994.50
2019-06-25T06:08:48.511Z,994.50
2019-06-25T06:09:48.645Z,994.48
2019-06-25T06:10:48.793Z,994.53
2019-06-25T06:11:48.915Z,994.47
2019-06-25T06:12:49.049Z,994.47
2019-06-25T06:13:49.201Z,994.54
2019-06-25T06:14:49.342Z,994.56
2019-06-25T06:15:49.455Z,994.55
2019-06-25T06:16:49.596Z,994.54
2019-06-25T06:17:49.731Z,994.56
2019-06-25T06:18:49.863Z,994.59
2019-06-25T06:19:50.010Z,994.57
2019-06-25T06:20:50.144Z,994.52
2019-06-25T06:21:50.283Z,994.56
2019-06-25T06:22:50.417Z,994.55
2019-06-25T06:23:50.566Z,994.60
2019-06-25T06:24:50.876Z,994.59
2019-06-25T06:25:50.850Z,994.53
2019-06-25T06:26:50.986Z,994.59
2019-06-25T06:27:51.125Z,994.58
2019-06-25T06:28:51.255Z,994.58
2019-06-25T06:29:51.405Z,994.55
2019-06-25T06:30:51.601Z,994.59
2019-06-25T06:31:51.664Z,994.59
2019-06-25T06:32:51.805Z,994.57
2019-06-25T06:33:51.940Z,994.58
2019-06-25T06:34:52.077Z,994.53
2019-06-25T06:35:52.211Z,994.56
2019-06-25T06:36:52.356Z,994.59
2019-06-25T06:37:52.488Z,994.57
2019-06-25T06:38:52.628Z,994.55
2019-06-25T06:39:52.766Z,994.57
2019-06-25T06:40:52.903Z,994.56
2019-06-25T06:41:53.041Z,994.59
2019-06-25T06:42:53.175Z,994.58
2019-06-25T06:43:53.362Z,994.54
2019-06-25T06:44:53.477Z,994.50
2019-06-25T06:45:53.606Z,994.52
2019-06-25T06:46:53.770Z,994.50
2019-06-25T06:47:53.906Z,994.48
2019-06-25T06:48:54.041Z,994.52
2019-06-25T06:49:54.177Z,994.54
2019-06-25T06:50:54.335Z,994.52
2019-06-25T06:51:54.471Z,994.57
2019-06-25T06:52:54.612Z,994.53
2019-06-25T06:53:54.758Z,994.56
2019-06-25T06:54:54.887Z,994.52
2019-06-25T06:55:55.033Z,994.51
2019-06-25T06:56:55.161Z,994.51
2019-06-25T06:57:55.322Z,994.50
2019-06-25T06:58:55.450Z,994.50
2019-06-25T06:59:55.602Z,994.49
2019-06-25T07:00:55.755Z,994.49
2019-06-25T07:01:55.928Z,994.51
2019-06-25T07:02:56.042Z,994.49
2019-06-25T07:03:56.222Z,994.50
2019-06-25T07:04:56.332Z,994.49
2019-06-25T07:05:56.468Z,994.52
2019-06-25T07:06:56.598Z,994.50
2019-06-25T07:07:56.815Z,994.56
2019-06-25T07:08:56.946Z,994.55
2019-06-25T07:09:57.029Z,994.53
2019-06-25T07:10:57.168Z,994.54
2019-06-25T07:11:57.325Z,994.51
2019-06-25T07:12:57.463Z,994.50
2019-06-25T07:13:57.599Z,994.51
2019-06-25T07:14:57.742Z,994.47
2019-06-25T07:15:57.904Z,994.49
2019-06-25T07:16:58.031Z,994.50
2019-06-25T07:17:58.182Z,994.48
2019-06-25T07:18:58.293Z,994.52
2019-06-25T07:19:58.473Z,994.53
2019-06-25T07:20:58.620Z,994.51
2019-06-25T07:21:58.744Z,994.51
2019-06-25T07:22:58.884Z,994.47
2019-06-25T07:23:59.030Z,994.45
2019-06-25T07:24:59.165Z,994.47
2019-06-25T07:25:59.307Z,994.43
2019-06-25T07:26:59.444Z,994.44
2019-06-25T07:27:59.592Z,994.43
2019-06-25T07:28:59.728Z,994.47
2019-06-25T07:29:59.873Z,994.46
2019-06-25T07:31:00.059Z,994.49
2019-06-25T07:32:00.159Z,994.45
2019-06-25T07:33:00.299Z,994.48
2019-06-25T07:34:09.227Z,994.47
2019-06-25T07:35:00.565Z,994.42
2019-06-25T07:36:00.702Z,994.43
2019-06-25T07:37:00.839Z,994.40
2019-06-25T07:38:00.989Z,994.44
2019-06-25T07:39:01.129Z,994.40
2019-06-25T07:40:01.263Z,994.42
2019-06-25T07:41:01.403Z,994.42
2019-06-25T07:42:01.583Z,994.36
2019-06-25T07:43:01.701Z,994.39
2019-06-25T07:44:01.834Z,994.40
2019-06-25T07:45:02.035Z,994.41
2019-06-25T07:46:02.209Z,994.43
2019-06-25T07:47:02.271Z,994.42
2019-06-25T07:48:02.423Z,994.47
2019-06-25T07:49:02.544Z,994.46
2019-06-25T07:50:02.679Z,994.45
2019-06-25T07:51:02.883Z,994.46
2019-06-25T07:52:02.981Z,994.49
2019-06-25T07:53:03.108Z,994.44
2019-06-25T07:54:03.270Z,994.49
2019-06-25T07:55:03.589Z,994.44
2019-06-25T07:56:03.569Z,994.48
2019-06-25T07:57:03.698Z,994.49
2019-06-25T07:58:03.834Z,994.48
2019-06-25T07:59:03.969Z,994.45
2019-06-25T08:00:04.110Z,994.44
2019-06-25T08:01:04.241Z,994.45
2019-06-25T08:02:04.382Z,994.46
2019-06-25T08:03:04.575Z,994.41
2019-06-25T08:04:04.729Z,994.45
2019-06-25T08:05:04.865Z,994.45
2019-06-25T08:06:05.011Z,994.44
2019-06-25T08:07:05.145Z,994.44
2019-06-25T08:08:05.299Z,994.44
2019-06-25T08:09:05.437Z,994.42
2019-06-25T08:10:05.581Z,994.42
2019-06-25T08:11:05.753Z,994.41
2019-06-25T08:12:05.888Z,994.35
2019-06-25T08:13:06.025Z,994.39
2019-06-25T08:14:06.165Z,994.35
2019-06-25T08:15:06.305Z,994.36
2019-06-25T08:16:06.450Z,994.37
2019-06-25T08:17:07.540Z,994.36
2019-06-25T08:18:06.736Z,994.39
2019-06-25T08:19:06.877Z,994.41
2019-06-25T08:20:07.032Z,994.39
2019-06-25T08:21:07.157Z,994.49
2019-06-25T08:22:07.299Z,994.47
2019-06-25T08:23:07.473Z,994.45
2019-06-25T08:24:07.597Z,994.46
2019-06-25T08:25:07.746Z,994.44
2019-06-25T08:26:07.902Z,994.43
2019-06-25T08:27:08.029Z,994.39
2019-06-25T08:28:08.158Z,994.43
2019-06-25T08:29:08.296Z,994.39
2019-06-25T08:30:08.471Z,994.45
2019-06-25T08:31:08.585Z,994.41
2019-06-25T08:32:08.742Z,994.42
2019-06-25T08:33:08.879Z,994.48
2019-06-25T08:34:09.015Z,994.46
2019-06-25T08:35:09.157Z,994.41
2019-06-25T08:36:09.290Z,994.39
2019-06-25T08:37:09.460Z,994.34
2019-06-25T08:38:09.579Z,994.38
2019-06-25T08:39:09.725Z,994.36
2019-06-25T08:40:19.076Z,994.35
2019-06-25T08:41:10.021Z,994.38
2019-06-25T08:42:10.156Z,994.35
2019-06-25T08:43:10.310Z,994.37
2019-06-25T08:44:10.437Z,994.34
2019-06-25T08:45:10.556Z,994.34
2019-06-25T08:46:10.695Z,994.43
2019-06-25T08:47:10.841Z,994.37
2019-06-25T08:48:10.991Z,994.34
2019-06-25T08:49:11.128Z,994.34
2019-06-25T08:50:11.283Z,994.33
2019-06-25T08:51:11.405Z,994.32
2019-06-25T08:52:11.563Z,994.29
2019-06-25T08:53:11.700Z,994.36
2019-06-25T08:54:14.896Z,994.28
2019-06-25T08:55:12.001Z,994.31
2019-06-25T08:56:12.132Z,994.27
2019-06-25T08:57:12.271Z,994.24
2019-06-25T08:58:12.410Z,994.23
2019-06-25T08:59:12.559Z,994.31
2019-06-25T09:00:12.703Z,994.32
2019-06-25T09:01:12.843Z,994.40
2019-06-25T09:02:12.972Z,994.37
2019-06-25T09:03:13.109Z,994.30
2019-06-25T09:04:13.253Z,994.32
2019-06-25T09:05:13.380Z,994.38
2019-06-25T09:06:13.532Z,994.34
2019-06-25T09:07:13.643Z,994.33
2019-06-25T09:08:13.799Z,994.35
2019-06-25T09:09:13.933Z,994.31
2019-06-25T09:10:14.075Z,994.32
2019-06-25T09:11:14.237Z,994.32
2019-06-25T09:12:14.383Z,994.31
2019-06-25T09:13:14.524Z,994.33
2019-06-25T09:14:14.651Z,994.26
2019-06-25T09:15:14.824Z,994.22
2019-06-25T09:16:14.937Z,994.32
2019-06-25T09:17:15.067Z,994.24
2019-06-25T09:18:15.206Z,994.33
2019-06-25T09:19:15.358Z,994.28
2019-06-25T09:20:15.493Z,994.25
2019-06-25T09:21:15.639Z,994.27
2019-06-25T09:22:15.776Z,994.23
2019-06-25T09:23:15.907Z,994.19
2019-06-25T09:24:16.048Z,994.23
2019-06-25T09:25:17.580Z,994.19
2019-06-25T09:26:16.341Z,994.26
2019-06-25T09:27:16.499Z,994.23
2019-06-25T09:28:16.609Z,994.19
2019-06-25T09:29:16.778Z,994.24
2019-06-25T09:30:16.880Z,994.16
2019-06-25T09:31:17.022Z,994.13
2019-06-25T09:32:17.163Z,994.19
2019-06-25T09:33:17.299Z,994.18
2019-06-25T09:34:17.447Z,994.22
2019-06-25T09:35:20.137Z,994.20
2019-06-25T09:36:17.719Z,994.21
2019-06-25T09:37:17.857Z,994.16
2019-06-25T09:38:17.998Z,994.22
2019-06-25T09:39:18.137Z,994.14
2019-06-25T09:40:18.277Z,994.18
2019-06-25T09:41:18.424Z,994.17
2019-06-25T09:42:18.579Z,994.24
2019-06-25T09:43:18.721Z,994.27
2019-06-25T09:44:18.834Z,994.22
2019-06-25T09:45:18.970Z,994.27
2019-06-25T09:46:19.111Z,994.30
2019-06-25T09:47:19.254Z,994.21
2019-06-25T09:48:19.389Z,994.17
2019-06-25T09:49:19.533Z,994.26
2019-06-25T09:50:19.668Z,994.29
2019-06-25T09:51:19.798Z,994.30
2019-06-25T09:52:19.938Z,994.29
2019-06-25T09:53:22.099Z,994.29
2019-06-25T09:54:20.235Z,994.37
2019-06-25T09:55:20.435Z,994.35
2019-06-25T09:56:20.512Z,994.33
2019-06-25T09:57:20.643Z,994.40
2019-06-25T09:58:20.789Z,994.37
2019-06-25T09:59:20.933Z,994.32
2019-06-25T10:00:21.090Z,994.36
2019-06-25T10:01:26.465Z,994.39
2019-06-25T10:02:21.362Z,994.40
2019-06-25T10:03:21.722Z,994.42
2019-06-25T10:04:21.655Z,994.33
2019-06-25T10:05:31.028Z,994.36
2019-06-25T10:06:21.922Z,994.37
2019-06-25T10:07:22.070Z,994.33
2019-06-25T10:08:22.698Z,994.33
2019-06-25T10:09:22.327Z,994.39
2019-06-25T10:10:22.473Z,994.38
2019-06-25T10:11:22.605Z,994.35
2019-06-25T10:12:22.767Z,994.39
2019-06-25T10:13:22.911Z,994.34
2019-06-25T10:14:23.031Z,994.35
2019-06-25T10:15:23.171Z,994.40
2019-06-25T10:16:23.318Z,994.39
2019-06-25T10:17:23.450Z,994.28
2019-06-25T10:18:23.607Z,994.36
2019-06-25T10:19:23.737Z,994.37
2019-06-25T10:20:23.886Z,994.30
2019-06-25T10:21:25.812Z,994.35
2019-06-25T10:22:24.189Z,994.36
2019-06-25T10:23:24.320Z,994.34
2019-06-25T10:24:24.474Z,994.33
2019-06-25T10:25:24.601Z,994.41
2019-06-25T10:26:24.737Z,994.41
2019-06-25T10:27:24.880Z,994.46
2019-06-25T10:28:31.057Z,994.41
2019-06-25T10:29:25.190Z,994.38
2019-06-25T10:30:25.303Z,994.43
2019-06-25T10:31:25.446Z,994.48
2019-06-25T10:32:25.595Z,994.36
2019-06-25T10:33:25.723Z,994.36
2019-06-25T10:34:25.878Z,994.36
2019-06-25T10:35:26.058Z,994.40
2019-06-25T10:36:26.252Z,994.34
2019-06-25T10:37:26.342Z,994.38
2019-06-25T10:38:26.485Z,994.39
2019-06-25T10:39:26.644Z,994.43
2019-06-25T10:40:26.785Z,994.42
2019-06-25T10:41:26.924Z,994.37
2019-06-25T10:42:27.136Z,994.36
2019-06-25T10:43:27.226Z,994.44
2019-06-25T10:44:27.368Z,994.37
2019-06-25T10:45:27.502Z,994.37
2019-06-25T10:46:27.671Z,994.46
2019-06-25T10:47:27.806Z,994.45
2019-06-25T10:48:27.958Z,994.44
2019-06-25T10:49:28.088Z,994.40
2019-06-25T10:50:28.294Z,994.39
2019-06-25T10:51:28.394Z,994.32
2019-06-25T10:52:28.540Z,994.39
2019-06-25T10:53:28.684Z,994.41
2019-06-25T10:54:28.861Z,994.42
2019-06-25T10:55:29.012Z,994.42
2019-06-25T10:56:31.224Z,994.46
2019-06-25T10:57:29.265Z,994.36
2019-06-25T10:58:29.400Z,994.38
2019-06-25T10:59:29.547Z,994.36
2019-06-25T11:00:29.688Z,994.39
2019-06-25T11:01:29.836Z,994.37
2019-06-25T11:02:29.974Z,994.40
2019-06-25T11:03:30.106Z,994.39
2019-06-25T11:04:30.260Z,994.39
2019-06-25T11:05:30.398Z,994.36
2019-06-25T11:06:30.551Z,994.31
2019-06-25T11:07:30.672Z,994.31
2019-06-25T11:08:30.819Z,994.31
2019-06-25T11:09:31.001Z,994.28
2019-06-25T11:10:31.111Z,994.37
2019-06-25T11:11:31.244Z,994.41
2019-06-25T11:12:31.397Z,994.36
2019-06-25T11:13:31.538Z,994.27
2019-06-25T11:14:31.689Z,994.26
2019-06-25T11:15:31.827Z,994.24
2019-06-25T11:16:31.995Z,994.24
2019-06-25T11:17:32.132Z,994.22
2019-06-25T11:18:32.256Z,994.20
2019-06-25T11:19:32.403Z,994.21
2019-06-25T11:20:32.536Z,994.16
2019-06-25T11:21:32.679Z,994.18
2019-06-25T11:22:32.831Z,994.18
2019-06-25T11:23:32.974Z,994.10
2019-06-25T11:24:33.130Z,994.09
2019-06-25T11:25:33.275Z,994.06
2019-06-25T11:26:33.430Z,994.15
2019-06-25T11:27:33.564Z,994.18
2019-06-25T11:28:33.702Z,994.19
2019-06-25T11:29:33.838Z,994.12
2019-06-25T11:30:34.008Z,994.11
2019-06-25T11:31:34.150Z,994.17
2019-06-25T11:32:34.288Z,994.15
2019-06-25T11:33:34.433Z,994.17
2019-06-25T11:34:34.571Z,994.16
2019-06-25T11:35:34.757Z,994.10
2019-06-25T11:36:34.867Z,994.12
2019-06-25T11:37:35.029Z,994.12
2019-06-25T11:38:35.168Z,994.19
2019-06-25T11:39:35.316Z,994.17
2019-06-25T11:40:35.453Z,994.22
2019-06-25T11:41:35.608Z,994.18
2019-06-25T11:42:35.751Z,994.12
2019-06-25T11:43:44.344Z,994.16
2019-06-25T11:44:36.035Z,994.17
2019-06-25T11:45:36.207Z,994.17
2019-06-25T11:46:36.343Z,994.14
2019-06-25T11:47:36.489Z,994.12
2019-06-25T11:48:36.626Z,994.14
2019-06-25T11:49:36.803Z,994.14
2019-06-25T11:50:36.955Z,994.13
2019-06-25T11:51:37.094Z,994.16
2019-06-25T11:52:37.245Z,994.12
2019-06-25T11:53:37.383Z,994.13
2019-06-25T11:54:37.518Z,994.09
2019-06-25T11:55:37.663Z,994.13
2019-06-25T11:56:37.835Z,994.10
2019-06-25T11:57:37.966Z,994.07
2019-06-25T11:58:38.097Z,994.08
2019-06-25T11:59:38.240Z,994.12
2019-06-25T12:00:38.404Z,994.08
2019-06-25T12:01:38.528Z,994.05
2019-06-25T12:02:38.732Z,994.05
2019-06-25T12:03:38.810Z,994.12
2019-06-25T12:04:38.954Z,994.11
2019-06-25T12:05:39.096Z,994.08
2019-06-25T12:06:53.341Z,994.08
2019-06-25T12:07:39.403Z,994.10
2019-06-25T12:08:39.554Z,994.06
2019-06-25T12:09:39.706Z,994.05
2019-06-25T12:10:39.833Z,994.08
2019-06-25T12:11:39.972Z,994.09
2019-06-25T12:12:40.183Z,994.12
2019-06-25T12:13:40.263Z,994.12
2019-06-25T12:14:40.393Z,994.07
2019-06-25T12:15:40.536Z,994.07
2019-06-25T12:16:40.704Z,994.06
2019-06-25T12:17:40.852Z,994.06
2019-06-25T12:18:40.991Z,994.07
2019-06-25T12:19:48.322Z,994.07
2019-06-25T12:20:41.289Z,994.07
2019-06-25T12:21:44.509Z,994.09
2019-06-25T12:22:41.578Z,994.08
2019-06-25T12:23:41.733Z,994.12
2019-06-25T12:24:41.851Z,994.06
2019-06-25T12:25:42.011Z,994.10
2019-06-25T12:26:42.145Z,994.02
2019-06-25T12:27:42.273Z,994.00
2019-06-25T12:28:42.420Z,994.04
2019-06-25T12:29:42.562Z,993.99
2019-06-25T12:30:42.712Z,993.92